Flight Track Log - Related Links

Times and Time Zones

All times are in EST time to prevent confusion due to time zone crossing. See the WAV261 flight status page for this flight to view local times or setup timezone preferences in your user account.

Time Position Orientation Groundspeed Altitude Reporting Facility
EST Latitude Longitude Course Direction KTS MPH feet Rate Location/Type
Sun 10:27:42 PM 66.4667 -145.4167 211° Southwest 150 173 6,700  Level Anchorage Center
Sun 10:28:43 PM 66.4333 -145.4667 211° Southwest 150 173 7,900 942 Climbing Anchorage Center
Sun 10:29:43 PM 66.4000 -145.5167 211° Southwest 160 184 8,600 400 Climbing Anchorage Center
Sun 10:30:43 PM 66.3500 -145.5833 208° Southwest 170 196 8,700 50 Climbing Anchorage Center
Sun 10:31:43 PM 66.3167 -145.6500 219° Southwest 160 184 8,700  Level Anchorage Center
Sun 10:32:43 PM 66.2833 -145.7167 219° Southwest 160 184 8,700  Level Anchorage Center
Sun 10:33:43 PM 66.2500 -145.7833 219° Southwest 170 196 8,700  Level Anchorage Center
Sun 10:34:43 PM 66.2000 -145.8500 208° Southwest 170 196 8,700  Level Anchorage Center
Sun 10:35:44 PM 66.1667 -145.9000 211° Southwest 170 196 8,700 -50 Level Anchorage Center
Sun 10:36:43 PM 66.1333 -145.9667 219° Southwest 180 207 8,600  Descending Anchorage Center
Sun 10:37:43 PM 66.0833 -146.0333 208° Southwest 170 196 8,700 50 Climbing Anchorage Center
Sun 10:38:43 PM 66.0500 -146.1000 219° Southwest 170 196 8,700  Level Anchorage Center
Sun 10:39:44 PM 66.0167 -146.1667 219° Southwest 160 184 8,700 -50 Level Anchorage Center
Sun 10:40:44 PM 65.9667 -146.2333 209° Southwest 180 207 8,600 -50 Descending Anchorage Center
Sun 10:41:44 PM 65.9333 -146.2833 211° Southwest 170 196 8,600  Level Anchorage Center
Sun 10:42:44 PM 65.8833 -146.3500 209° Southwest 170 196 8,600  Level Anchorage Center
Sun 10:43:44 PM 65.8500 -146.4167 219° Southwest 170 196 8,600  Level Anchorage Center
Sun 10:44:44 PM 65.8000 -146.4833 209° Southwest 170 196 8,600  Level Anchorage Center
Sun 10:45:44 PM 65.7667 -146.5500 219° Southwest 170 196 8,600  Level Anchorage Center
Sun 10:46:44 PM 65.7333 -146.6000 212° Southwest 170 196 8,600  Level Anchorage Center
Sun 10:47:44 PM 65.6833 -146.6667 209° Southwest 170 196 8,600  Level Anchorage Center
Sun 10:48:45 PM 65.6500 -146.7333 220° Southwest 160 184 8,600  Level Anchorage Center
Sun 10:49:45 PM 65.6167 -146.8000 220° Southwest 170 196 8,600  Level Anchorage Center
Sun 10:50:45 PM 65.5667 -146.8667 209° Southwest 180 207 8,600  Level Anchorage Center
Sun 10:51:45 PM 65.5167 -146.9333 209° Southwest 180 207 8,600  Level Anchorage Center
Sun 10:52:45 PM 65.4833 -147.0000 220° Southwest 170 196 8,600  Level Anchorage Center
Sun 10:54:00 PM 65.4318 -147.0519 203° Southwest  Level FlightAware Approximate
Sun 11:01:00 PM 65.1517 -147.3731 209° Southwest  Level FlightAware Approximate
Sun 11:02:00 PM 65.1125 -147.4240 209° Southwest  Level FlightAware Approximate
Sun 11:03:00 PM 65.0733 -147.4747 209° Southwest  Level FlightAware Approximate
Sun 11:04:00 PM 65.0347 -147.5280 211° Southwest  Level FlightAware Approximate
Sun 11:05:00 PM 64.9962 -147.5815 210° Southwest  Level FlightAware Approximate
Sun 11:06:00 PM 64.9577 -147.6350 210° Southwest  Level FlightAware Approximate
Sun 11:07:00 PM 64.9191 -147.6883 210° Southwest  Level FlightAware Approximate
Sun 11:08:00 PM 64.8805 -147.7414 210° Southwest  Level FlightAware Approximate
Sun 11:09:00 PM 64.8419 -147.7941 210° Southwest  Level FlightAware Approximate
Sun 11:10:00 PM 64.8030 -147.8459 210° Southwest  Level FlightAware Approximate
Sun 11:11:00 PM 64.8000 -147.8500 210° Southwest  Level FlightAware Approximate
Sun 11:12:00 PM 64.8151 -147.8564 210° Southwest  Level Estimated
Sun 11:13:00 PM 64.8151 -147.8564 210° Southwest  Level Estimated
Sun 11:14:00 PM 64.8151 -147.8564 210° Southwest  Level Estimated
Sun 11:15:00 PM 64.8151 -147.8564 210° Southwest  Level Estimated
Sun 11:16:00 PM 64.8151 -147.8564 210° Southwest  Level Estimated
Sun 11:17:00 PM 64.8151 -147.8564 210° Southwest  Level Estimated
Sun 11:18:00 PM 64.8151 -147.8564 210° Southwest  Level Estimated
Sun 11:19:00 PM 64.8151 -147.8564 210° Southwest  Level Estimated

Login

Don't have an account? Register now (free) for customized features, flight alerts, and more!